sensor_id;sensor_type;location;lat;lon;timestamp;P1;durP1;ratioP1;P2;durP2;ratioP2
52124;SDS011;38119;52.710;6.398;2022-12-18T00:00:42;77.47;;;26.42;;
52124;SDS011;38119;52.710;6.398;2022-12-18T00:03:09;79.13;;;28.10;;
52124;SDS011;38119;52.710;6.398;2022-12-18T00:05:35;75.82;;;26.17;;
52124;SDS011;38119;52.710;6.398;2022-12-18T00:08:01;75.15;;;27.90;;
52124;SDS011;38119;52.710;6.398;2022-12-18T00:10:28;75.35;;;27.80;;
52124;SDS011;38119;52.710;6.398;2022-12-18T00:12:53;75.57;;;27.30;;
52124;SDS011;38119;52.710;6.398;2022-12-18T00:15:19;74.68;;;27.25;;
52124;SDS011;38119;52.710;6.398;2022-12-18T00:17:45;77.13;;;28.27;;
52124;SDS011;38119;52.710;6.398;2022-12-18T00:20:11;74.45;;;28.27;;
52124;SDS011;38119;52.710;6.398;2022-12-18T00:22:37;77.88;;;28.23;;
52124;SDS011;38119;52.710;6.398;2022-12-18T00:25:02;75.05;;;27.35;;
52124;SDS011;38119;52.710;6.398;2022-12-18T00:27:28;91.35;;;32.78;;
52124;SDS011;38119;52.710;6.398;2022-12-18T00:29:54;88.95;;;32.20;;
52124;SDS011;38119;52.710;6.398;2022-12-18T00:32:19;77.43;;;29.38;;
52124;SDS011;38119;52.710;6.398;2022-12-18T00:34:45;85.65;;;30.60;;
52124;SDS011;38119;52.710;6.398;2022-12-18T00:37:10;75.25;;;29.30;;
52124;SDS011;38119;52.710;6.398;2022-12-18T00:39:36;87.32;;;31.55;;
52124;SDS011;38119;52.710;6.398;2022-12-18T00:42:02;90.28;;;30.67;;
52124;SDS011;38119;52.710;6.398;2022-12-18T00:44:46;82.10;;;29.45;;
52124;SDS011;38119;52.710;6.398;2022-12-18T00:47:11;84.95;;;31.05;;
52124;SDS011;38119;52.710;6.398;2022-12-18T00:49:37;88.65;;;31.80;;
52124;SDS011;38119;52.710;6.398;2022-12-18T00:52:02;82.38;;;30.73;;
52124;SDS011;38119;52.710;6.398;2022-12-18T00:54:28;81.50;;;29.65;;
52124;SDS011;38119;52.710;6.398;2022-12-18T00:56:54;79.47;;;30.48;;
52124;SDS011;38119;52.710;6.398;2022-12-18T00:59:20;80.50;;;28.45;;
52124;SDS011;38119;52.710;6.398;2022-12-18T01:01:46;80.97;;;29.48;;
52124;SDS011;38119;52.710;6.398;2022-12-18T01:04:11;84.97;;;30.13;;
52124;SDS011;38119;52.710;6.398;2022-12-18T01:06:37;82.65;;;29.40;;
52124;SDS011;38119;52.710;6.398;2022-12-18T01:09:03;82.60;;;28.58;;
52124;SDS011;38119;52.710;6.398;2022-12-18T01:11:28;77.10;;;28.80;;
52124;SDS011;38119;52.710;6.398;2022-12-18T01:13:54;80.00;;;28.98;;
52124;SDS011;38119;52.710;6.398;2022-12-18T01:16:20;70.40;;;27.85;;
52124;SDS011;38119;52.710;6.398;2022-12-18T01:18:46;76.43;;;28.38;;
52124;SDS011;38119;52.710;6.398;2022-12-18T01:21:14;70.32;;;27.02;;
52124;SDS011;38119;52.710;6.398;2022-12-18T01:23:44;83.00;;;28.33;;
52124;SDS011;38119;52.710;6.398;2022-12-18T01:26:10;72.35;;;28.08;;
52124;SDS011;38119;52.710;6.398;2022-12-18T01:28:38;74.90;;;27.05;;
52124;SDS011;38119;52.710;6.398;2022-12-18T01:31:49;80.78;;;27.25;;
52124;SDS011;38119;52.710;6.398;2022-12-18T01:33:54;78.53;;;28.10;;
52124;SDS011;38119;52.710;6.398;2022-12-18T01:36:22;73.15;;;28.20;;
52124;SDS011;38119;52.710;6.398;2022-12-18T01:38:48;79.18;;;26.75;;
52124;SDS011;38119;52.710;6.398;2022-12-18T01:41:15;80.43;;;29.02;;
52124;SDS011;38119;52.710;6.398;2022-12-18T01:46:26;75.57;;;27.15;;
52124;SDS011;38119;52.710;6.398;2022-12-18T01:48:53;68.05;;;26.70;;
52124;SDS011;38119;52.710;6.398;2022-12-18T01:51:25;66.95;;;26.20;;
52124;SDS011;38119;52.710;6.398;2022-12-18T01:53:54;68.03;;;26.02;;
52124;SDS011;38119;52.710;6.398;2022-12-18T01:56:20;73.93;;;27.63;;
52124;SDS011;38119;52.710;6.398;2022-12-18T01:58:52;72.35;;;28.10;;
52124;SDS011;38119;52.710;6.398;2022-12-18T02:01:28;78.95;;;27.88;;
52124;SDS011;38119;52.710;6.398;2022-12-18T02:03:55;78.10;;;27.67;;
52124;SDS011;38119;52.710;6.398;2022-12-18T02:06:27;76.88;;;28.50;;
52124;SDS011;38119;52.710;6.398;2022-12-18T02:14:43;68.18;;;26.25;;
52124;SDS011;38119;52.710;6.398;2022-12-18T02:23:24;68.22;;;27.15;;
52124;SDS011;38119;52.710;6.398;2022-12-18T02:28:26;73.75;;;26.52;;
52124;SDS011;38119;52.710;6.398;2022-12-18T02:30:56;75.20;;;26.80;;
52124;SDS011;38119;52.710;6.398;2022-12-18T02:33:26;74.40;;;28.13;;
52124;SDS011;38119;52.710;6.398;2022-12-18T02:35:53;79.07;;;27.90;;
52124;SDS011;38119;52.710;6.398;2022-12-18T02:38:22;74.55;;;27.88;;
52124;SDS011;38119;52.710;6.398;2022-12-18T02:40:49;77.57;;;27.30;;
52124;SDS011;38119;52.710;6.398;2022-12-18T02:43:17;82.35;;;28.02;;
52124;SDS011;38119;52.710;6.398;2022-12-18T02:46:00;80.22;;;26.98;;
52124;SDS011;38119;52.710;6.398;2022-12-18T02:48:48;76.90;;;26.02;;
52124;SDS011;38119;52.710;6.398;2022-12-18T02:51:21;81.85;;;27.73;;
52124;SDS011;38119;52.710;6.398;2022-12-18T02:54:03;70.17;;;26.37;;
52124;SDS011;38119;52.710;6.398;2022-12-18T02:56:38;77.78;;;25.25;;
52124;SDS011;38119;52.710;6.398;2022-12-18T02:59:23;78.03;;;26.77;;
52124;SDS011;38119;52.710;6.398;2022-12-18T03:04:43;73.97;;;25.20;;
52124;SDS011;38119;52.710;6.398;2022-12-18T03:07:26;74.88;;;24.98;;
52124;SDS011;38119;52.710;6.398;2022-12-18T03:09:59;79.40;;;27.77;;
52124;SDS011;38119;52.710;6.398;2022-12-18T03:13:00;80.28;;;27.83;;
52124;SDS011;38119;52.710;6.398;2022-12-18T03:15:31;77.07;;;27.70;;
52124;SDS011;38119;52.710;6.398;2022-12-18T03:18:06;80.88;;;27.52;;
52124;SDS011;38119;52.710;6.398;2022-12-18T03:20:38;75.93;;;27.30;;
52124;SDS011;38119;52.710;6.398;2022-12-18T03:23:09;81.45;;;25.75;;
52124;SDS011;38119;52.710;6.398;2022-12-18T03:25:39;74.90;;;25.85;;
52124;SDS011;38119;52.710;6.398;2022-12-18T03:28:07;74.45;;;27.23;;
52124;SDS011;38119;52.710;6.398;2022-12-18T03:30:38;66.95;;;25.17;;
52124;SDS011;38119;52.710;6.398;2022-12-18T03:35:39;67.20;;;25.20;;
52124;SDS011;38119;52.710;6.398;2022-12-18T03:38:06;77.50;;;26.15;;
52124;SDS011;38119;52.710;6.398;2022-12-18T03:40:53;77.32;;;26.85;;
52124;SDS011;38119;52.710;6.398;2022-12-18T03:46:30;65.53;;;23.70;;
52124;SDS011;38119;52.710;6.398;2022-12-18T03:49:10;71.07;;;24.92;;
52124;SDS011;38119;52.710;6.398;2022-12-18T03:54:17;69.13;;;24.45;;
52124;SDS011;38119;52.710;6.398;2022-12-18T03:56:45;65.00;;;24.25;;
52124;SDS011;38119;52.710;6.398;2022-12-18T03:59:13;82.88;;;26.40;;
52124;SDS011;38119;52.710;6.398;2022-12-18T04:01:42;77.43;;;26.00;;
52124;SDS011;38119;52.710;6.398;2022-12-18T04:04:12;72.03;;;25.88;;
52124;SDS011;38119;52.710;6.398;2022-12-18T04:06:39;75.85;;;24.40;;
52124;SDS011;38119;52.710;6.398;2022-12-18T04:09:06;69.15;;;24.42;;
52124;SDS011;38119;52.710;6.398;2022-12-18T04:11:32;74.60;;;26.08;;
52124;SDS011;38119;52.710;6.398;2022-12-18T04:13:58;74.25;;;24.92;;
52124;SDS011;38119;52.710;6.398;2022-12-18T04:16:25;68.20;;;25.38;;
52124;SDS011;38119;52.710;6.398;2022-12-18T04:18:51;70.30;;;24.83;;
52124;SDS011;38119;52.710;6.398;2022-12-18T04:21:17;68.45;;;25.35;;
52124;SDS011;38119;52.710;6.398;2022-12-18T04:23:43;83.38;;;27.25;;
52124;SDS011;38119;52.710;6.398;2022-12-18T04:26:08;73.20;;;24.85;;
52124;SDS011;38119;52.710;6.398;2022-12-18T04:28:34;72.13;;;24.83;;
52124;SDS011;38119;52.710;6.398;2022-12-18T04:30:59;69.38;;;24.63;;
52124;SDS011;38119;52.710;6.398;2022-12-18T04:33:25;69.10;;;24.75;;
52124;SDS011;38119;52.710;6.398;2022-12-18T04:35:51;72.00;;;25.15;;
52124;SDS011;38119;52.710;6.398;2022-12-18T04:38:16;71.20;;;24.55;;
52124;SDS011;38119;52.710;6.398;2022-12-18T04:40:42;64.22;;;24.77;;
52124;SDS011;38119;52.710;6.398;2022-12-18T04:43:08;66.03;;;24.02;;
52124;SDS011;38119;52.710;6.398;2022-12-18T04:45:34;61.08;;;23.27;;
52124;SDS011;38119;52.710;6.398;2022-12-18T04:48:00;68.68;;;24.70;;
52124;SDS011;38119;52.710;6.398;2022-12-18T04:50:26;74.32;;;24.48;;
52124;SDS011;38119;52.710;6.398;2022-12-18T04:52:52;61.10;;;24.98;;
52124;SDS011;38119;52.710;6.398;2022-12-18T04:55:18;70.68;;;24.80;;
52124;SDS011;38119;52.710;6.398;2022-12-18T04:57:43;71.43;;;25.65;;
52124;SDS011;38119;52.710;6.398;2022-12-18T05:00:09;68.72;;;25.08;;
52124;SDS011;38119;52.710;6.398;2022-12-18T05:02:35;69.18;;;23.45;;
52124;SDS011;38119;52.710;6.398;2022-12-18T05:05:01;59.92;;;22.63;;
52124;SDS011;38119;52.710;6.398;2022-12-18T05:07:27;65.25;;;23.63;;
52124;SDS011;38119;52.710;6.398;2022-12-18T05:09:53;59.33;;;23.33;;
52124;SDS011;38119;52.710;6.398;2022-12-18T05:12:18;62.58;;;22.35;;
52124;SDS011;38119;52.710;6.398;2022-12-18T05:14:44;58.95;;;22.67;;
52124;SDS011;38119;52.710;6.398;2022-12-18T05:17:09;61.10;;;22.63;;
52124;SDS011;38119;52.710;6.398;2022-12-18T05:19:38;59.72;;;21.67;;
52124;SDS011;38119;52.710;6.398;2022-12-18T05:22:07;52.00;;;21.67;;
52124;SDS011;38119;52.710;6.398;2022-12-18T05:24:33;53.72;;;22.40;;
52124;SDS011;38119;52.710;6.398;2022-12-18T05:26:59;57.00;;;22.00;;
52124;SDS011;38119;52.710;6.398;2022-12-18T05:29:24;55.75;;;22.27;;
52124;SDS011;38119;52.710;6.398;2022-12-18T05:31:50;54.30;;;21.38;;
52124;SDS011;38119;52.710;6.398;2022-12-18T05:34:16;50.92;;;20.58;;
52124;SDS011;38119;52.710;6.398;2022-12-18T05:36:41;50.97;;;20.63;;
52124;SDS011;38119;52.710;6.398;2022-12-18T05:39:07;57.13;;;20.88;;
52124;SDS011;38119;52.710;6.398;2022-12-18T05:41:33;59.03;;;21.77;;
52124;SDS011;38119;52.710;6.398;2022-12-18T05:43:59;51.53;;;21.23;;
52124;SDS011;38119;52.710;6.398;2022-12-18T05:46:24;54.55;;;21.73;;
52124;SDS011;38119;52.710;6.398;2022-12-18T05:48:50;50.85;;;20.50;;
52124;SDS011;38119;52.710;6.398;2022-12-18T05:51:17;52.67;;;19.95;;
52124;SDS011;38119;52.710;6.398;2022-12-18T05:53:44;54.40;;;21.63;;
52124;SDS011;38119;52.710;6.398;2022-12-18T05:56:14;48.80;;;20.15;;
52124;SDS011;38119;52.710;6.398;2022-12-18T05:58:43;53.30;;;20.58;;
52124;SDS011;38119;52.710;6.398;2022-12-18T06:01:16;44.30;;;18.98;;
52124;SDS011;38119;52.710;6.398;2022-12-18T06:03:46;51.92;;;19.92;;
52124;SDS011;38119;52.710;6.398;2022-12-18T06:06:15;48.28;;;19.67;;
52124;SDS011;38119;52.710;6.398;2022-12-18T06:08:45;51.92;;;20.65;;
52124;SDS011;38119;52.710;6.398;2022-12-18T06:11:13;43.05;;;18.00;;
52124;SDS011;38119;52.710;6.398;2022-12-18T06:13:43;45.80;;;18.63;;
52124;SDS011;38119;52.710;6.398;2022-12-18T06:16:08;49.88;;;19.98;;
52124;SDS011;38119;52.710;6.398;2022-12-18T06:18:37;55.13;;;21.27;;
52124;SDS011;38119;52.710;6.398;2022-12-18T06:21:03;50.28;;;19.60;;
52124;SDS011;38119;52.710;6.398;2022-12-18T06:23:29;43.63;;;18.35;;
52124;SDS011;38119;52.710;6.398;2022-12-18T06:25:54;46.17;;;18.65;;
52124;SDS011;38119;52.710;6.398;2022-12-18T06:28:20;42.22;;;17.83;;
52124;SDS011;38119;52.710;6.398;2022-12-18T06:30:46;47.70;;;19.27;;
52124;SDS011;38119;52.710;6.398;2022-12-18T06:33:13;46.42;;;19.10;;
52124;SDS011;38119;52.710;6.398;2022-12-18T06:35:39;42.25;;;18.02;;
52124;SDS011;38119;52.710;6.398;2022-12-18T06:38:05;44.85;;;19.50;;
52124;SDS011;38119;52.710;6.398;2022-12-18T06:40:31;47.95;;;18.88;;
52124;SDS011;38119;52.710;6.398;2022-12-18T06:42:57;45.70;;;18.80;;
52124;SDS011;38119;52.710;6.398;2022-12-18T06:45:23;46.03;;;18.98;;
52124;SDS011;38119;52.710;6.398;2022-12-18T06:47:49;45.30;;;18.95;;
52124;SDS011;38119;52.710;6.398;2022-12-18T06:50:15;47.13;;;19.00;;
52124;SDS011;38119;52.710;6.398;2022-12-18T06:52:40;43.60;;;18.95;;
52124;SDS011;38119;52.710;6.398;2022-12-18T06:55:10;44.08;;;18.58;;
52124;SDS011;38119;52.710;6.398;2022-12-18T06:57:36;39.25;;;17.10;;
52124;SDS011;38119;52.710;6.398;2022-12-18T07:00:04;40.80;;;17.38;;
52124;SDS011;38119;52.710;6.398;2022-12-18T07:02:30;39.17;;;17.38;;
52124;SDS011;38119;52.710;6.398;2022-12-18T07:04:56;43.22;;;18.48;;
52124;SDS011;38119;52.710;6.398;2022-12-18T07:07:22;41.08;;;17.88;;
52124;SDS011;38119;52.710;6.398;2022-12-18T07:09:49;39.70;;;17.42;;
52124;SDS011;38119;52.710;6.398;2022-12-18T07:12:15;47.83;;;17.58;;
52124;SDS011;38119;52.710;6.398;2022-12-18T07:14:41;41.75;;;17.63;;
52124;SDS011;38119;52.710;6.398;2022-12-18T07:17:06;42.83;;;17.05;;
52124;SDS011;38119;52.710;6.398;2022-12-18T07:19:32;43.30;;;18.67;;
52124;SDS011;38119;52.710;6.398;2022-12-18T07:21:58;39.63;;;17.35;;
52124;SDS011;38119;52.710;6.398;2022-12-18T07:24:24;44.42;;;18.52;;
52124;SDS011;38119;52.710;6.398;2022-12-18T07:26:49;36.83;;;16.92;;
52124;SDS011;38119;52.710;6.398;2022-12-18T07:29:15;42.13;;;19.27;;
52124;SDS011;38119;52.710;6.398;2022-12-18T07:31:40;40.17;;;17.30;;
52124;SDS011;38119;52.710;6.398;2022-12-18T07:34:09;38.03;;;16.98;;
52124;SDS011;38119;52.710;6.398;2022-12-18T07:36:39;37.22;;;16.77;;
52124;SDS011;38119;52.710;6.398;2022-12-18T07:39:05;35.65;;;16.63;;
52124;SDS011;38119;52.710;6.398;2022-12-18T07:41:31;37.13;;;15.55;;
52124;SDS011;38119;52.710;6.398;2022-12-18T07:43:57;35.85;;;15.70;;
52124;SDS011;38119;52.710;6.398;2022-12-18T07:46:22;35.47;;;16.63;;
52124;SDS011;38119;52.710;6.398;2022-12-18T07:48:48;36.10;;;16.17;;
52124;SDS011;38119;52.710;6.398;2022-12-18T07:51:13;38.50;;;17.08;;
52124;SDS011;38119;52.710;6.398;2022-12-18T07:53:39;38.92;;;18.45;;
52124;SDS011;38119;52.710;6.398;2022-12-18T07:56:06;40.45;;;18.15;;
52124;SDS011;38119;52.710;6.398;2022-12-18T07:58:33;34.33;;;17.02;;
52124;SDS011;38119;52.710;6.398;2022-12-18T08:01:07;35.28;;;16.20;;
52124;SDS011;38119;52.710;6.398;2022-12-18T08:03:34;34.85;;;15.60;;
52124;SDS011;38119;52.710;6.398;2022-12-18T08:06:03;36.92;;;16.50;;
52124;SDS011;38119;52.710;6.398;2022-12-18T08:08:30;33.30;;;16.20;;
52124;SDS011;38119;52.710;6.398;2022-12-18T08:10:56;34.42;;;15.93;;
52124;SDS011;38119;52.710;6.398;2022-12-18T08:13:22;36.92;;;16.55;;
52124;SDS011;38119;52.710;6.398;2022-12-18T08:15:55;34.20;;;16.38;;
52124;SDS011;38119;52.710;6.398;2022-12-18T08:18:28;32.85;;;16.08;;
52124;SDS011;38119;52.710;6.398;2022-12-18T08:20:55;35.00;;;16.38;;
52124;SDS011;38119;52.710;6.398;2022-12-18T08:23:20;34.95;;;16.98;;
52124;SDS011;38119;52.710;6.398;2022-12-18T08:25:46;38.95;;;19.00;;
52124;SDS011;38119;52.710;6.398;2022-12-18T08:28:12;36.58;;;17.95;;
52124;SDS011;38119;52.710;6.398;2022-12-18T08:30:53;39.38;;;17.10;;
52124;SDS011;38119;52.710;6.398;2022-12-18T08:33:18;31.58;;;16.00;;
52124;SDS011;38119;52.710;6.398;2022-12-18T08:35:47;53.70;;;27.60;;
52124;SDS011;38119;52.710;6.398;2022-12-18T08:38:12;40.42;;;20.45;;
52124;SDS011;38119;52.710;6.398;2022-12-18T08:40:38;43.63;;;26.15;;
52124;SDS011;38119;52.710;6.398;2022-12-18T08:43:03;40.08;;;20.40;;
52124;SDS011;38119;52.710;6.398;2022-12-18T08:45:48;37.33;;;19.48;;
52124;SDS011;38119;52.710;6.398;2022-12-18T08:48:13;47.22;;;26.73;;
52124;SDS011;38119;52.710;6.398;2022-12-18T08:50:39;38.95;;;23.50;;
52124;SDS011;38119;52.710;6.398;2022-12-18T08:53:05;50.70;;;28.63;;
52124;SDS011;38119;52.710;6.398;2022-12-18T08:55:38;49.30;;;29.00;;
52124;SDS011;38119;52.710;6.398;2022-12-18T08:58:03;42.78;;;24.40;;
52124;SDS011;38119;52.710;6.398;2022-12-18T09:00:29;52.03;;;28.85;;
52124;SDS011;38119;52.710;6.398;2022-12-18T09:02:55;42.10;;;22.58;;
52124;SDS011;38119;52.710;6.398;2022-12-18T09:05:20;41.72;;;22.30;;
52124;SDS011;38119;52.710;6.398;2022-12-18T09:07:46;32.58;;;18.58;;
52124;SDS011;38119;52.710;6.398;2022-12-18T09:10:11;36.47;;;18.20;;
52124;SDS011;38119;52.710;6.398;2022-12-18T09:12:37;35.63;;;19.83;;
52124;SDS011;38119;52.710;6.398;2022-12-18T09:15:03;33.58;;;18.15;;
52124;SDS011;38119;52.710;6.398;2022-12-18T09:17:29;35.38;;;19.10;;
52124;SDS011;38119;52.710;6.398;2022-12-18T09:20:02;33.75;;;19.38;;
52124;SDS011;38119;52.710;6.398;2022-12-18T09:22:28;35.83;;;18.15;;
52124;SDS011;38119;52.710;6.398;2022-12-18T09:24:53;31.35;;;15.88;;
52124;SDS011;38119;52.710;6.398;2022-12-18T09:27:19;27.17;;;14.45;;
52124;SDS011;38119;52.710;6.398;2022-12-18T09:29:45;27.63;;;13.82;;
52124;SDS011;38119;52.710;6.398;2022-12-18T09:32:10;29.65;;;15.05;;
52124;SDS011;38119;52.710;6.398;2022-12-18T09:34:36;28.67;;;13.98;;
52124;SDS011;38119;52.710;6.398;2022-12-18T09:37:01;31.13;;;13.80;;
52124;SDS011;38119;52.710;6.398;2022-12-18T09:39:37;29.30;;;14.80;;
52124;SDS011;38119;52.710;6.398;2022-12-18T09:44:41;26.77;;;13.48;;
52124;SDS011;38119;52.710;6.398;2022-12-18T09:49:39;30.60;;;14.25;;
52124;SDS011;38119;52.710;6.398;2022-12-18T09:52:30;60.65;;;29.35;;
52124;SDS011;38119;52.710;6.398;2022-12-18T09:55:30;79.22;;;37.55;;
52124;SDS011;38119;52.710;6.398;2022-12-18T10:00:34;40.90;;;18.23;;
52124;SDS011;38119;52.710;6.398;2022-12-18T10:03:01;44.40;;;20.15;;
52124;SDS011;38119;52.710;6.398;2022-12-18T10:11:16;27.95;;;14.70;;
52124;SDS011;38119;52.710;6.398;2022-12-18T10:13:59;25.40;;;13.55;;
52124;SDS011;38119;52.710;6.398;2022-12-18T10:22:02;28.85;;;13.73;;
52124;SDS011;38119;52.710;6.398;2022-12-18T10:27:14;28.05;;;13.43;;
52124;SDS011;38119;52.710;6.398;2022-12-18T10:29:42;23.63;;;12.57;;
52124;SDS011;38119;52.710;6.398;2022-12-18T10:32:24;30.97;;;18.47;;
52124;SDS011;38119;52.710;6.398;2022-12-18T10:34:52;26.02;;;15.20;;
52124;SDS011;38119;52.710;6.398;2022-12-18T10:37:29;26.95;;;15.60;;
52124;SDS011;38119;52.710;6.398;2022-12-18T10:40:11;26.55;;;14.60;;
52124;SDS011;38119;52.710;6.398;2022-12-18T10:42:38;27.33;;;13.55;;
52124;SDS011;38119;52.710;6.398;2022-12-18T10:45:15;26.38;;;12.85;;
52124;SDS011;38119;52.710;6.398;2022-12-18T10:47:46;26.90;;;14.13;;
52124;SDS011;38119;52.710;6.398;2022-12-18T10:50:25;27.85;;;15.40;;
52124;SDS011;38119;52.710;6.398;2022-12-18T11:01:08;25.38;;;14.80;;
52124;SDS011;38119;52.710;6.398;2022-12-18T11:03:42;27.75;;;14.48;;
52124;SDS011;38119;52.710;6.398;2022-12-18T11:06:23;27.90;;;14.75;;
52124;SDS011;38119;52.710;6.398;2022-12-18T11:09:05;33.17;;;16.35;;
52124;SDS011;38119;52.710;6.398;2022-12-18T11:11:48;35.00;;;18.38;;
52124;SDS011;38119;52.710;6.398;2022-12-18T11:14:18;43.40;;;21.55;;
52124;SDS011;38119;52.710;6.398;2022-12-18T11:16:53;40.97;;;21.15;;
52124;SDS011;38119;52.710;6.398;2022-12-18T11:19:23;38.50;;;20.38;;
52124;SDS011;38119;52.710;6.398;2022-12-18T11:24:36;25.38;;;14.93;;
52124;SDS011;38119;52.710;6.398;2022-12-18T11:27:02;24.98;;;13.60;;
52124;SDS011;38119;52.710;6.398;2022-12-18T11:29:32;21.80;;;11.48;;
52124;SDS011;38119;52.710;6.398;2022-12-18T11:32:21;21.05;;;11.57;;
52124;SDS011;38119;52.710;6.398;2022-12-18T11:34:50;20.42;;;11.50;;
52124;SDS011;38119;52.710;6.398;2022-12-18T11:37:23;22.73;;;12.20;;
52124;SDS011;38119;52.710;6.398;2022-12-18T11:40:06;19.23;;;10.52;;
52124;SDS011;38119;52.710;6.398;2022-12-18T11:42:47;17.52;;;9.32;;
52124;SDS011;38119;52.710;6.398;2022-12-18T11:45:40;18.35;;;9.35;;
52124;SDS011;38119;52.710;6.398;2022-12-18T11:48:16;19.70;;;10.98;;
52124;SDS011;38119;52.710;6.398;2022-12-18T11:50:53;21.13;;;10.75;;
52124;SDS011;38119;52.710;6.398;2022-12-18T11:53:21;19.67;;;10.45;;
52124;SDS011;38119;52.710;6.398;2022-12-18T12:12:49;18.17;;;11.10;;
52124;SDS011;38119;52.710;6.398;2022-12-18T12:15:32;19.48;;;10.25;;
52124;SDS011;38119;52.710;6.398;2022-12-18T12:26:22;17.23;;;9.05;;
52124;SDS011;38119;52.710;6.398;2022-12-18T12:28:57;16.35;;;10.07;;
52124;SDS011;38119;52.710;6.398;2022-12-18T12:34:27;15.07;;;7.65;;
52124;SDS011;38119;52.710;6.398;2022-12-18T12:39:50;13.73;;;7.57;;
52124;SDS011;38119;52.710;6.398;2022-12-18T12:42:31;12.48;;;7.45;;
52124;SDS011;38119;52.710;6.398;2022-12-18T12:45:33;13.20;;;7.43;;
52124;SDS011;38119;52.710;6.398;2022-12-18T12:48:07;13.05;;;7.53;;
52124;SDS011;38119;52.710;6.398;2022-12-18T12:50:52;12.88;;;6.88;;
52124;SDS011;38119;52.710;6.398;2022-12-18T12:53:23;12.93;;;7.15;;
52124;SDS011;38119;52.710;6.398;2022-12-18T12:55:55;14.15;;;6.97;;
52124;SDS011;38119;52.710;6.398;2022-12-18T12:58:36;14.43;;;8.80;;
52124;SDS011;38119;52.710;6.398;2022-12-18T13:04:03;14.75;;;7.82;;
52124;SDS011;38119;52.710;6.398;2022-12-18T13:06:54;11.07;;;6.50;;
52124;SDS011;38119;52.710;6.398;2022-12-18T13:09:23;12.65;;;7.28;;
52124;SDS011;38119;52.710;6.398;2022-12-18T13:11:48;12.05;;;6.55;;
52124;SDS011;38119;52.710;6.398;2022-12-18T13:14:36;11.98;;;6.55;;
52124;SDS011;38119;52.710;6.398;2022-12-18T13:17:16;12.80;;;6.18;;
52124;SDS011;38119;52.710;6.398;2022-12-18T13:20:15;10.85;;;6.00;;
52124;SDS011;38119;52.710;6.398;2022-12-18T13:22:52;12.93;;;6.55;;
52124;SDS011;38119;52.710;6.398;2022-12-18T13:25:26;11.20;;;6.20;;
52124;SDS011;38119;52.710;6.398;2022-12-18T13:35:53;11.20;;;6.10;;
52124;SDS011;38119;52.710;6.398;2022-12-18T13:41:01;11.77;;;6.70;;
52124;SDS011;38119;52.710;6.398;2022-12-18T13:43:27;12.80;;;7.13;;
52124;SDS011;38119;52.710;6.398;2022-12-18T13:51:39;10.80;;;6.10;;
52124;SDS011;38119;52.710;6.398;2022-12-18T13:56:50;11.35;;;6.70;;
52124;SDS011;38119;52.710;6.398;2022-12-18T14:01:55;14.38;;;7.22;;
52124;SDS011;38119;52.710;6.398;2022-12-18T14:04:26;10.65;;;6.63;;
52124;SDS011;38119;52.710;6.398;2022-12-18T14:09:43;13.10;;;7.00;;
52124;SDS011;38119;52.710;6.398;2022-12-18T14:12:30;14.10;;;7.63;;
52124;SDS011;38119;52.710;6.398;2022-12-18T14:18:00;11.27;;;6.13;;
52124;SDS011;38119;52.710;6.398;2022-12-18T14:20:29;12.88;;;6.47;;
52124;SDS011;38119;52.710;6.398;2022-12-18T14:22:57;11.13;;;6.57;;
52124;SDS011;38119;52.710;6.398;2022-12-18T14:25:25;13.55;;;6.60;;
52124;SDS011;38119;52.710;6.398;2022-12-18T14:27:53;11.23;;;5.78;;
52124;SDS011;38119;52.710;6.398;2022-12-18T14:30:35;12.68;;;6.18;;
52124;SDS011;38119;52.710;6.398;2022-12-18T14:41:02;14.30;;;7.97;;
52124;SDS011;38119;52.710;6.398;2022-12-18T14:43:39;14.10;;;7.00;;
52124;SDS011;38119;52.710;6.398;2022-12-18T14:48:53;11.75;;;6.60;;
52124;SDS011;38119;52.710;6.398;2022-12-18T14:51:20;12.27;;;6.78;;
52124;SDS011;38119;52.710;6.398;2022-12-18T14:53:48;15.70;;;7.30;;
52124;SDS011;38119;52.710;6.398;2022-12-18T14:56:36;16.35;;;8.38;;
52124;SDS011;38119;52.710;6.398;2022-12-18T14:59:15;14.70;;;7.80;;
52124;SDS011;38119;52.710;6.398;2022-12-18T15:01:45;15.75;;;8.30;;
52124;SDS011;38119;52.710;6.398;2022-12-18T15:07:16;18.30;;;8.30;;
52124;SDS011;38119;52.710;6.398;2022-12-18T15:09:44;21.08;;;9.85;;
52124;SDS011;38119;52.710;6.398;2022-12-18T15:12:39;18.15;;;9.10;;
52124;SDS011;38119;52.710;6.398;2022-12-18T15:18:13;22.42;;;14.00;;
52124;SDS011;38119;52.710;6.398;2022-12-18T15:20:57;23.55;;;12.48;;
52124;SDS011;38119;52.710;6.398;2022-12-18T15:23:25;19.90;;;11.20;;
52124;SDS011;38119;52.710;6.398;2022-12-18T15:26:00;21.45;;;11.50;;
52124;SDS011;38119;52.710;6.398;2022-12-18T15:28:49;27.33;;;13.52;;
52124;SDS011;38119;52.710;6.398;2022-12-18T15:36:18;22.60;;;11.68;;
52124;SDS011;38119;52.710;6.398;2022-12-18T15:38:53;21.40;;;12.23;;
52124;SDS011;38119;52.710;6.398;2022-12-18T15:41:31;19.40;;;10.70;;
52124;SDS011;38119;52.710;6.398;2022-12-18T15:46:36;17.45;;;11.35;;
52124;SDS011;38119;52.710;6.398;2022-12-18T15:49:02;21.98;;;13.07;;
52124;SDS011;38119;52.710;6.398;2022-12-18T15:51:34;22.85;;;12.45;;
52124;SDS011;38119;52.710;6.398;2022-12-18T15:54:02;22.35;;;12.18;;
52124;SDS011;38119;52.710;6.398;2022-12-18T15:56:29;24.00;;;12.93;;
52124;SDS011;38119;52.710;6.398;2022-12-18T15:59:14;29.92;;;17.17;;
52124;SDS011;38119;52.710;6.398;2022-12-18T16:01:45;30.67;;;17.70;;
52124;SDS011;38119;52.710;6.398;2022-12-18T16:04:12;31.85;;;13.93;;
52124;SDS011;38119;52.710;6.398;2022-12-18T16:06:49;24.08;;;13.38;;
52124;SDS011;38119;52.710;6.398;2022-12-18T16:12:15;21.60;;;11.73;;
52124;SDS011;38119;52.710;6.398;2022-12-18T16:14:45;21.63;;;9.60;;
52124;SDS011;38119;52.710;6.398;2022-12-18T16:17:12;19.45;;;9.43;;
52124;SDS011;38119;52.710;6.398;2022-12-18T16:19:39;15.85;;;9.23;;
52124;SDS011;38119;52.710;6.398;2022-12-18T16:22:14;16.30;;;8.70;;
52124;SDS011;38119;52.710;6.398;2022-12-18T16:24:45;19.95;;;10.05;;
52124;SDS011;38119;52.710;6.398;2022-12-18T16:27:11;18.23;;;10.70;;
52124;SDS011;38119;52.710;6.398;2022-12-18T16:29:36;18.13;;;10.23;;
52124;SDS011;38119;52.710;6.398;2022-12-18T16:32:13;16.05;;;8.93;;
52124;SDS011;38119;52.710;6.398;2022-12-18T16:37:38;14.60;;;8.65;;
52124;SDS011;38119;52.710;6.398;2022-12-18T16:40:05;16.85;;;8.80;;
52124;SDS011;38119;52.710;6.398;2022-12-18T16:42:36;18.27;;;8.68;;
52124;SDS011;38119;52.710;6.398;2022-12-18T16:45:02;15.30;;;8.02;;
52124;SDS011;38119;52.710;6.398;2022-12-18T16:47:29;14.93;;;7.85;;
52124;SDS011;38119;52.710;6.398;2022-12-18T16:49:55;17.00;;;8.68;;
52124;SDS011;38119;52.710;6.398;2022-12-18T16:52:20;15.73;;;9.15;;
52124;SDS011;38119;52.710;6.398;2022-12-18T16:54:46;18.90;;;10.98;;
52124;SDS011;38119;52.710;6.398;2022-12-18T16:57:13;17.98;;;10.50;;
52124;SDS011;38119;52.710;6.398;2022-12-18T16:59:40;16.23;;;9.20;;
52124;SDS011;38119;52.710;6.398;2022-12-18T17:02:20;19.13;;;9.52;;
52124;SDS011;38119;52.710;6.398;2022-12-18T17:04:47;17.88;;;9.48;;
52124;SDS011;38119;52.710;6.398;2022-12-18T17:07:13;15.80;;;9.07;;
52124;SDS011;38119;52.710;6.398;2022-12-18T17:09:39;18.00;;;9.32;;
52124;SDS011;38119;52.710;6.398;2022-12-18T17:12:05;19.13;;;9.30;;